Time;durP1;ratioP1;P1;durP2;ratioP2;P2;SDS_P1;SDS_P2;PMS_P1;PMS_P2;Temp;Humidity;BMP_temperature;BMP_pressure;BME280_temperature;BME280_humidity;BME280_pressure;Samples;Min_cycle;Max_cycle;Signal;HPM_P1;HPM_P2
2021/11/09 00:02:23;;;;;;;13.93;6.00;;;9.00;99.90;;;;;;4913675;28;20055;-84
2021/11/09 00:04:53;;;;;;;11.32;5.28;;;8.90;99.90;;;;;;4888641;29;20055;-84
2021/11/09 00:07:29;;;;;;;14.57;5.53;;;8.90;99.90;;;;;;4882276;29;20071;-84
2021/11/09 00:10:06;;;;;;;15.07;5.25;;;8.90;99.90;;;;;;4948997;28;20036;-84
2021/11/09 00:12:44;;;;;;;11.43;4.00;;;8.80;99.90;;;;;;4885827;29;20024;-84
2021/11/09 00:15:19;;;;;;;10.15;4.38;;;8.80;99.90;;;;;;4916926;28;20021;-84
2021/11/09 00:17:46;;;;;;;15.98;5.13;;;8.80;99.90;;;;;;4872981;29;20039;-84
2021/11/09 00:20:16;;;;;;;13.02;5.30;;;8.80;99.90;;;;;;4892920;29;20041;-84
2021/11/09 00:22:46;;;;;;;10.13;4.23;;;8.80;99.90;;;;;;4912575;28;20081;-84
2021/11/09 00:25:22;;;;;;;9.70;4.10;;;8.70;99.90;;;;;;4898360;28;20032;-84
2021/11/09 00:28:01;;;;;;;10.27;5.47;;;8.70;99.90;;;;;;4899013;28;20028;-84
2021/11/09 00:30:28;;;;;;;12.45;5.28;;;8.70;99.90;;;;;;4899693;28;20098;-84
2021/11/09 00:33:09;;;;;;;15.63;5.57;;;8.60;99.90;;;;;;4915777;28;20046;-84
2021/11/09 00:35:41;;;;;;;16.05;5.55;;;8.60;99.90;;;;;;4899108;28;20535;-84
2021/11/09 00:38:28;;;;;;;;;;;;;;;;;;;;;
2021/11/09 00:40:59;;;;;;;10.55;5.10;;;8.50;99.90;;;;;;4916174;28;20031;-84
2021/11/09 00:43:32;;;;;;;13.20;5.43;;;8.50;99.90;;;;;;4899261;28;20024;-84
2021/11/09 00:46:01;;;;;;;14.52;5.40;;;8.50;99.90;;;;;;4869844;29;20555;-84
2021/11/09 00:48:26;;;;;;;14.25;6.63;;;8.40;99.90;;;;;;4883204;29;20436;-84
2021/11/09 00:50:55;;;;;;;17.40;6.18;;;8.40;99.90;;;;;;4880585;29;20028;-84
2021/11/09 00:53:33;;;;;;;10.48;5.63;;;8.40;99.90;;;;;;4902089;28;20086;-84
2021/11/09 00:56:04;;;;;;;13.18;7.00;;;8.40;99.90;;;;;;4918182;28;20037;-84
2021/11/09 00:58:29;;;;;;;14.18;6.38;;;8.30;99.90;;;;;;4915638;29;20106;-84
2021/11/09 01:00:55;;;;;;;13.55;6.35;;;8.30;99.90;;;;;;4890589;28;20111;-84
2021/11/09 01:03:21;;;;;;;12.95;6.05;;;8.30;99.90;;;;;;4872808;29;20036;-84
2021/11/09 01:05:46;;;;;;;16.20;7.40;;;8.20;99.90;;;;;;4898724;29;20032;-84
2021/11/09 01:08:15;;;;;;;13.25;6.43;;;8.20;99.90;;;;;;4883006;28;20127;-84
2021/11/09 01:10:45;;;;;;;11.75;5.82;;;8.20;99.90;;;;;;4884329;29;20028;-84
2021/11/09 01:13:12;;;;;;;12.60;5.85;;;8.20;99.90;;;;;;4898707;29;20071;-84
2021/11/09 01:15:48;;;;;;;12.68;6.22;;;8.20;99.90;;;;;;4898873;28;20027;-85
2021/11/09 01:18:14;;;;;;;14.63;6.80;;;8.10;99.90;;;;;;4898036;28;20028;-84
2021/11/09 01:20:40;;;;;;;14.73;6.35;;;8.20;99.90;;;;;;4915074;29;20040;-84
2021/11/09 01:23:06;;;;;;;11.40;5.63;;;8.10;99.90;;;;;;4882801;29;20123;-84
2021/11/09 01:25:32;;;;;;;8.45;4.80;;;8.10;99.90;;;;;;4883777;29;20135;-84
2021/11/09 01:27:59;;;;;;;9.70;4.75;;;8.00;99.90;;;;;;4898064;28;20024;-84
2021/11/09 01:30:26;;;;;;;11.73;4.60;;;8.00;99.90;;;;;;4936488;28;20030;-84
2021/11/09 01:32:53;;;;;;;8.68;4.97;;;8.00;99.90;;;;;;4896109;28;20039;-84
2021/11/09 01:35:20;;;;;;;10.90;4.78;;;7.90;99.90;;;;;;4899235;29;20030;-88
2021/11/09 01:37:55;;;;;;;10.13;4.78;;;7.90;99.90;;;;;;4901444;29;20473;-88
2021/11/09 01:40:29;;;;;;;12.55;5.50;;;7.90;99.90;;;;;;4901544;29;20032;-88
2021/11/09 01:43:08;;;;;;;12.07;5.53;;;7.90;99.90;;;;;;4901935;28;20111;-88
2021/11/09 01:45:40;;;;;;;10.48;5.18;;;7.80;99.90;;;;;;4900212;29;20046;-88
2021/11/09 01:48:20;;;;;;;11.00;5.13;;;7.80;99.90;;;;;;4901735;28;20028;-88
2021/11/09 01:51:01;;;;;;;11.40;5.35;;;7.80;99.90;;;;;;4903789;28;20135;-88
2021/11/09 01:53:53;;;;;;;13.48;5.30;;;7.80;99.90;;;;;;4904515;28;20051;-88
2021/11/09 01:56:26;;;;;;;12.27;5.75;;;7.70;99.90;;;;;;4906484;28;20123;-88
2021/11/09 01:58:58;;;;;;;9.85;5.35;;;7.70;99.90;;;;;;4921343;29;20031;-88
2021/11/09 02:01:26;;;;;;;14.05;5.13;;;7.70;99.90;;;;;;4922706;29;20030;-88
2021/11/09 02:04:07;;;;;;;13.07;5.50;;;7.60;99.90;;;;;;4929317;29;20062;-88
2021/11/09 02:06:33;;;;;;;7.75;4.70;;;7.60;99.90;;;;;;4931487;28;20050;-87
2021/11/09 02:16:05;;;;;;;9.65;4.80;;;7.60;99.90;;;;;;4939102;29;20111;-84
2021/11/09 02:18:50;;;;;;;9.50;5.20;;;7.50;99.90;;;;;;4937264;28;20039;-88
2021/11/09 02:21:23;;;;;;;11.73;5.63;;;7.50;99.90;;;;;;4922515;28;20036;-88
2021/11/09 02:23:49;;;;;;;11.07;5.30;;;7.50;99.90;;;;;;4908173;28;20488;-88
2021/11/09 02:26:49;;;;;;;11.63;4.97;;;7.40;99.90;;;;;;4903821;28;20032;-88
2021/11/09 02:29:20;;;;;;;12.32;5.45;;;7.40;99.90;;;;;;4918382;29;20063;-88
2021/11/09 02:31:57;;;;;;;16.73;6.07;;;7.40;99.90;;;;;;4922544;29;20039;-88
2021/11/09 02:34:23;;;;;;;12.68;5.10;;;7.40;99.90;;;;;;4921507;29;20055;-88
2021/11/09 02:36:52;;;;;;;11.40;4.97;;;7.40;99.90;;;;;;4890329;28;20016;-88
2021/11/09 02:39:24;;;;;;;6.88;4.53;;;7.40;99.90;;;;;;4921293;28;20031;-88
2021/11/09 02:41:58;;;;;;;7.50;4.20;;;7.40;99.90;;;;;;4953479;28;20028;-87
2021/11/09 02:44:37;;;;;;;12.93;4.90;;;7.30;99.90;;;;;;4921651;28;20066;-87
2021/11/09 02:47:13;;;;;;;9.27;4.78;;;7.30;99.90;;;;;;4920127;28;20031;-88
2021/11/09 03:06:59;;;;;;;12.60;6.03;;;7.20;99.90;;;;;;4972170;28;20405;-84
2021/11/09 03:12:41;;;;;;;12.65;5.80;;;7.10;99.90;;;;;;4991971;28;20071;-88
2021/11/09 03:15:34;;;;;;;10.63;5.85;;;7.10;99.90;;;;;;5004437;28;20040;-88
2021/11/09 03:18:09;;;;;;;11.18;5.05;;;7.10;99.90;;;;;;4941150;29;20047;-88
2021/11/09 03:46:52;;;;;;;10.93;6.78;;;6.90;99.90;;;;;;4941094;29;20558;-88
2021/11/09 03:52:28;;;;;;;15.80;7.15;;;6.90;99.90;;;;;;4923363;28;20408;-88
2021/11/09 03:55:01;;;;;;;18.33;7.18;;;6.90;99.90;;;;;;5044583;23;20181;-96
2021/11/09 03:57:34;;;;;;;17.95;6.82;;;6.80;99.90;;;;;;5081583;28;20369;-95
2021/11/09 04:05:07;;;;;;;11.73;7.10;;;6.80;99.90;;;;;;5079840;28;20028;-95
2021/11/09 04:12:54;;;;;;;13.93;7.03;;;6.80;99.90;;;;;;5099044;28;20035;-96
2021/11/09 04:15:33;;;;;;;15.02;6.68;;;6.70;99.90;;;;;;5088821;28;20155;-95
2021/11/09 04:25:41;;;;;;;19.08;7.57;;;6.70;99.90;;;;;;5099524;28;20391;-95
2021/11/09 04:42:39;;;;;;;20.50;9.05;;;6.70;99.90;;;;;;5101575;28;20062;-95
2021/11/09 04:53:12;;;;;;;19.55;8.40;;;6.60;99.90;;;;;;5109744;28;20032;-94
2021/11/09 05:11:21;;;;;;;20.92;8.85;;;6.50;99.90;;;;;;5082244;28;20040;-93
2021/11/09 05:13:47;;;;;;;23.60;8.80;;;6.50;99.90;;;;;;5090456;28;20058;-95
2021/11/09 05:16:13;;;;;;;21.15;9.65;;;6.50;99.90;;;;;;5095122;28;20036;-96
2021/11/09 05:18:39;;;;;;;21.08;8.80;;;6.50;99.90;;;;;;5111149;28;20050;-93
2021/11/09 05:21:05;;;;;;;19.85;9.40;;;6.50;99.90;;;;;;5089161;28;20028;-96
2021/11/09 05:23:31;;;;;;;27.50;10.13;;;6.50;99.90;;;;;;5083672;28;20032;-95
2021/11/09 05:25:56;;;;;;;20.13;9.40;;;6.50;99.90;;;;;;5109382;28;20024;-94
2021/11/09 05:28:24;;;;;;;20.45;9.95;;;6.50;99.90;;;;;;5094802;28;20099;-95
2021/11/09 05:30:51;;;;;;;22.65;9.63;;;6.50;99.90;;;;;;5073211;28;20032;-95
2021/11/09 05:33:19;;;;;;;17.98;8.80;;;6.40;99.90;;;;;;5104184;28;20061;-95
2021/11/09 05:35:45;;;;;;;18.80;8.40;;;6.50;99.90;;;;;;5102249;28;20027;-94
2021/11/09 05:38:14;;;;;;;22.67;9.18;;;6.50;99.90;;;;;;5074272;28;20024;-93
2021/11/09 05:40:41;;;;;;;17.63;8.25;;;6.50;99.90;;;;;;5082116;28;20043;-96
2021/11/09 05:43:08;;;;;;;17.15;7.85;;;6.50;99.90;;;;;;5109912;28;20042;-95
2021/11/09 05:45:34;;;;;;;18.60;8.60;;;6.40;99.90;;;;;;5090839;28;20075;-96
2021/11/09 05:48:00;;;;;;;21.90;8.73;;;6.40;99.90;;;;;;5116697;28;20024;-94
2021/11/09 05:50:27;;;;;;;19.52;8.82;;;6.40;99.90;;;;;;5117848;28;20031;-92
2021/11/09 05:52:55;;;;;;;17.52;8.38;;;6.30;99.90;;;;;;5110791;28;20020;-94
2021/11/09 05:55:21;;;;;;;18.92;8.68;;;6.30;99.90;;;;;;5057177;28;20043;-93
2021/11/09 05:57:47;;;;;;;20.15;9.43;;;6.30;99.90;;;;;;5075867;28;20102;-93
2021/11/09 06:00:14;;;;;;;18.45;9.38;;;6.30;99.90;;;;;;5074759;28;20056;-94
2021/11/09 06:02:42;;;;;;;26.20;9.48;;;6.30;99.90;;;;;;5060809;28;20027;-96
2021/11/09 06:05:08;;;;;;;20.45;9.07;;;6.30;99.90;;;;;;5078227;28;20020;-95
2021/11/09 06:07:34;;;;;;;21.70;8.95;;;6.30;99.90;;;;;;5096571;28;20098;-95
2021/11/09 06:10:00;;;;;;;20.02;8.65;;;6.30;99.90;;;;;;5099532;28;20027;-95
2021/11/09 06:12:26;;;;;;;15.80;8.02;;;6.30;99.90;;;;;;5102439;28;20016;-95
2021/11/09 06:14:54;;;;;;;22.30;8.98;;;6.30;99.90;;;;;;5099253;28;20028;-95
2021/11/09 06:17:20;;;;;;;18.73;8.25;;;6.30;99.90;;;;;;5307656;22;20052;-88
2021/11/09 06:19:45;;;;;;;19.77;8.15;;;6.30;99.90;;;;;;5059575;28;20549;-87
2021/11/09 06:22:12;;;;;;;25.65;9.48;;;6.30;99.90;;;;;;5041232;28;20068;-88
2021/11/09 06:24:38;;;;;;;24.08;9.23;;;6.30;99.90;;;;;;5057737;28;20049;-88
2021/11/09 06:27:04;;;;;;;22.27;8.52;;;6.30;99.90;;;;;;5057800;28;20027;-88
2021/11/09 06:29:29;;;;;;;25.60;8.38;;;6.30;99.90;;;;;;5040622;28;20513;-88
2021/11/09 06:31:59;;;;;;;18.85;9.25;;;6.30;99.90;;;;;;5068528;28;20032;-88
2021/11/09 06:34:26;;;;;;;20.33;9.15;;;6.30;99.90;;;;;;5075146;28;20017;-88
2021/11/09 06:36:52;;;;;;;17.05;8.80;;;6.30;99.90;;;;;;5037912;28;20124;-87
2021/11/09 06:39:17;;;;;;;21.73;9.18;;;6.30;99.90;;;;;;5035286;28;20071;-87
2021/11/09 06:41:44;;;;;;;19.17;8.45;;;6.30;99.90;;;;;;5058315;28;20017;-88
2021/11/09 06:44:10;;;;;;;24.38;9.30;;;6.30;99.90;;;;;;5038192;28;20604;-88
2021/11/09 06:46:35;;;;;;;23.90;8.90;;;6.30;99.90;;;;;;5043798;28;20048;-88
2021/11/09 06:49:01;;;;;;;22.25;9.18;;;6.30;99.90;;;;;;5042244;28;20029;-88
2021/11/09 06:51:27;;;;;;;21.55;8.52;;;6.30;99.90;;;;;;5057974;28;20074;-88
2021/11/09 06:53:52;;;;;;;25.33;9.63;;;6.30;99.90;;;;;;5059458;28;20024;-88
2021/11/09 06:56:18;;;;;;;22.13;8.95;;;6.30;99.90;;;;;;5055962;28;20036;-88
2021/11/09 06:58:45;;;;;;;20.70;8.68;;;6.30;99.90;;;;;;5046958;28;20033;-88
2021/11/09 07:01:10;;;;;;;22.55;9.18;;;6.30;99.90;;;;;;5058802;28;20024;-87
2021/11/09 07:03:36;;;;;;;27.50;9.57;;;6.30;99.90;;;;;;5079449;28;20021;-84
2021/11/09 07:06:05;;;;;;;20.23;9.63;;;6.20;99.90;;;;;;5055329;28;20107;-84
2021/11/09 07:08:32;;;;;;;22.80;9.50;;;6.20;99.90;;;;;;5055074;28;20366;-83
2021/11/09 07:10:59;;;;;;;27.45;9.70;;;6.20;99.90;;;;;;5079592;28;20500;-84
2021/11/09 07:13:25;;;;;;;21.85;9.73;;;6.20;99.90;;;;;;5034188;28;20017;-84
2021/11/09 07:15:51;;;;;;;23.02;10.25;;;6.10;99.90;;;;;;5056392;28;20074;-87
2021/11/09 07:18:17;;;;;;;24.55;9.75;;;6.10;99.90;;;;;;5055174;28;20053;-87
2021/11/09 07:20:43;;;;;;;24.90;10.40;;;6.10;99.90;;;;;;5047610;28;20025;-88
2021/11/09 07:23:09;;;;;;;25.35;9.73;;;6.10;99.90;;;;;;5032384;28;20728;-87
2021/11/09 07:25:35;;;;;;;26.77;11.15;;;6.10;99.90;;;;;;5066004;28;20032;-87
2021/11/09 07:28:01;;;;;;;26.20;10.73;;;6.10;99.90;;;;;;5031299;28;20029;-88
2021/11/09 07:30:41;;;;;;;24.00;10.88;;;6.10;99.90;;;;;;5033784;28;20083;-88
2021/11/09 07:33:13;;;;;;;25.67;10.38;;;6.10;99.90;;;;;;5048769;28;20025;-88
2021/11/09 07:35:39;;;;;;;26.27;10.13;;;6.10;99.90;;;;;;5046954;28;20368;-88
2021/11/09 07:38:06;;;;;;;20.42;9.65;;;6.10;99.90;;;;;;5054073;28;20032;-88
2021/11/09 07:40:32;;;;;;;22.20;9.13;;;6.10;99.90;;;;;;5043902;28;20021;-88
2021/11/09 07:42:57;;;;;;;19.92;9.40;;;6.10;99.90;;;;;;5054411;28;20033;-88
2021/11/09 07:45:23;;;;;;;21.13;9.48;;;6.20;99.90;;;;;;5057267;28;20039;-88
2021/11/09 07:47:51;;;;;;;19.23;9.10;;;6.20;99.90;;;;;;5026502;28;20153;-88
2021/11/09 07:50:18;;;;;;;20.58;9.10;;;6.20;99.90;;;;;;5028165;28;20090;-88
2021/11/09 07:52:45;;;;;;;20.67;8.95;;;6.20;99.90;;;;;;5044276;28;20140;-88
2021/11/09 07:55:17;;;;;;;22.15;9.57;;;6.20;99.90;;;;;;5027981;28;20041;-88
2021/11/09 07:57:46;;;;;;;21.00;9.10;;;6.30;99.90;;;;;;5057342;28;20027;-88
2021/11/09 08:00:32;;;;;;;21.30;9.32;;;6.30;99.90;;;;;;5065540;28;20092;-88
2021/11/09 08:05:57;;;;;;;22.25;9.00;;;6.40;99.90;;;;;;5058121;28;20108;-88
2021/11/09 08:11:08;;;;;;;26.48;10.82;;;6.50;99.90;;;;;;5042791;28;20055;-88
2021/11/09 08:13:34;;;;;;;29.73;10.25;;;6.50;99.90;;;;;;5034356;28;20028;-88
2021/11/09 08:16:00;;;;;;;28.33;10.82;;;6.60;99.90;;;;;;5060912;28;20029;-88
2021/11/09 08:18:26;;;;;;;38.05;11.48;;;6.60;99.90;;;;;;5025434;28;20044;-88
2021/11/09 08:20:52;;;;;;;26.27;11.93;;;6.60;99.90;;;;;;5047450;28;20071;-88
2021/11/09 08:23:20;;;;;;;27.55;10.57;;;6.60;99.90;;;;;;5044126;28;20035;-88
2021/11/09 08:25:46;;;;;;;35.35;10.88;;;6.70;99.90;;;;;;5028197;28;20027;-88
2021/11/09 08:28:12;;;;;;;28.17;11.48;;;6.70;99.90;;;;;;5056137;28;20108;-88
2021/11/09 08:30:38;;;;;;;33.15;12.43;;;6.80;99.90;;;;;;5008029;28;20470;-88
2021/11/09 08:33:05;;;;;;;29.02;10.93;;;6.80;99.90;;;;;;5063646;28;20047;-88
2021/11/09 08:35:31;;;;;;;25.77;10.48;;;6.90;99.90;;;;;;5041279;28;20464;-88
2021/11/09 08:37:57;;;;;;;30.88;11.60;;;6.90;99.90;;;;;;5010426;28;20093;-88
2021/11/09 08:40:26;;;;;;;25.50;10.90;;;7.00;99.90;;;;;;5004668;28;20063;-87
2021/11/09 08:42:58;;;;;;;27.60;12.00;;;7.00;99.90;;;;;;5039849;28;20493;-88
2021/11/09 08:47:54;;;;;;;28.10;11.57;;;7.10;99.90;;;;;;5039849;28;20025;-88
2021/11/09 08:50:22;;;;;;;30.00;10.07;;;7.20;99.90;;;;;;5014598;28;20033;-88
2021/11/09 08:52:49;;;;;;;27.23;9.73;;;7.20;99.90;;;;;;5052648;28;20009;-88
2021/11/09 08:58:31;;;;;;;31.77;10.13;;;7.40;99.90;;;;;;5019214;28;20474;-88
2021/11/09 09:06:16;;;;;;;29.13;11.50;;;7.60;99.90;;;;;;5036940;28;20037;-87
2021/11/09 09:08:42;;;;;;;23.88;9.40;;;7.60;99.90;;;;;;5054369;28;20020;-88
2021/11/09 09:11:08;;;;;;;23.67;11.13;;;7.70;99.90;;;;;;5021284;28;20108;-88
2021/11/09 09:13:34;;;;;;;26.98;9.93;;;7.80;99.90;;;;;;5037973;28;20109;-88
2021/11/09 09:16:00;;;;;;;28.17;10.88;;;7.80;99.90;;;;;;5035486;28;20479;-88
2021/11/09 09:18:26;;;;;;;27.90;10.23;;;7.90;99.90;;;;;;5028675;28;20046;-87
2021/11/09 09:21:07;;;;;;;25.92;10.57;;;8.00;99.90;;;;;;5060122;28;20080;-84
2021/11/09 09:23:35;;;;;;;22.92;9.77;;;8.00;99.90;;;;;;5057329;28;20121;-83
2021/11/09 09:26:25;;;;;;;28.40;11.15;;;8.10;99.90;;;;;;5054314;28;20391;-87
2021/11/09 09:29:26;;;;;;;30.92;10.98;;;8.10;99.90;;;;;;5058642;28;20018;-87
2021/11/09 09:54:22;;;;;;;26.48;10.20;;;8.80;99.90;;;;;;5038677;28;20065;-88
2021/11/09 09:56:54;;;;;;;24.60;9.30;;;8.90;99.90;;;;;;5043523;28;20037;-87
2021/11/09 09:59:24;;;;;;;33.00;10.23;;;9.00;99.90;;;;;;5042754;28;20147;-89
2021/11/09 10:02:05;;;;;;;25.73;9.93;;;9.00;99.90;;;;;;5036683;28;20039;-87
2021/11/09 10:04:36;;;;;;;27.02;9.27;;;9.20;99.90;;;;;;4991871;28;20023;-88
2021/11/09 10:07:06;;;;;;;23.00;8.98;;;9.20;99.90;;;;;;5048758;28;20106;-88
2021/11/09 10:09:40;;;;;;;35.63;10.88;;;9.30;99.90;;;;;;5047901;28;20030;-88
2021/11/09 10:12:36;;;;;;;24.60;8.95;;;9.40;99.90;;;;;;5059519;28;20091;-88
2021/11/09 10:15:20;;;;;;;24.98;9.43;;;9.50;99.90;;;;;;4991985;28;20076;-88
2021/11/09 10:18:02;;;;;;;32.08;10.18;;;9.60;99.90;;;;;;5039310;28;20075;-88
2021/11/09 10:20:46;;;;;;;16.63;8.85;;;9.60;99.90;;;;;;5055021;28;20027;-88
2021/11/09 10:23:17;;;;;;;22.90;8.73;;;9.70;99.90;;;;;;5087308;28;20287;-88
2021/11/09 10:25:53;;;;;;;27.70;9.40;;;9.70;99.90;;;;;;5057741;28;20092;-88
2021/11/09 10:28:24;;;;;;;21.52;8.98;;;9.90;99.90;;;;;;4996638;28;20034;-87
2021/11/09 10:30:56;;;;;;;24.15;8.85;;;10.00;99.90;;;;;;5038059;28;20051;-88
2021/11/09 10:33:26;;;;;;;29.45;9.68;;;10.10;99.90;;;;;;5060657;28;20033;-88
2021/11/09 10:35:57;;;;;;;25.17;9.27;;;10.10;99.90;;;;;;5058498;28;20526;-88
2021/11/09 10:38:44;;;;;;;25.13;9.52;;;10.30;99.90;;;;;;5037552;28;20274;-89
2021/11/09 10:41:14;;;;;;;18.55;8.43;;;10.30;99.90;;;;;;5056321;28;20430;-88
2021/11/09 10:43:42;;;;;;;18.70;7.63;;;10.40;99.90;;;;;;5055614;28;20045;-88
2021/11/09 10:46:29;;;;;;;28.05;9.68;;;10.50;99.90;;;;;;5071670;28;20019;-88
2021/11/09 10:48:58;;;;;;;21.55;8.77;;;10.60;99.50;;;;;;5052926;28;20562;-88
2021/11/09 10:51:46;;;;;;;23.95;8.25;;;10.70;99.40;;;;;;5055476;28;20034;-88
2021/11/09 10:54:17;;;;;;;23.38;9.32;;;10.80;99.20;;;;;;5049154;28;20046;-88
2021/11/09 10:57:08;;;;;;;;;;;10.90;98.80;;;;;;5063196;28;20027;-89
2021/11/09 10:59:59;;;;;;;22.27;8.48;;;11.00;98.90;;;;;;5056506;28;19918;-88
2021/11/09 11:05:22;;;;;;;21.42;7.72;;;11.10;98.70;;;;;;5051575;28;20038;-88
2021/11/09 11:07:57;;;;;;;19.90;8.02;;;11.30;98.10;;;;;;5050237;28;20060;-88
2021/11/09 11:10:34;;;;;;;17.70;8.57;;;11.40;98.50;;;;;;5077978;28;20058;-87
2021/11/09 11:13:25;;;;;;;21.02;8.48;;;11.40;98.40;;;;;;5035192;28;20038;-88
2021/11/09 11:16:19;;;;;;;22.50;7.90;;;11.50;98.20;;;;;;5048169;28;20019;-88
2021/11/09 11:18:55;;;;;;;24.90;8.70;;;11.60;96.50;;;;;;5075472;28;20055;-88
2021/11/09 11:21:36;;;;;;;19.58;7.43;;;11.70;97.00;;;;;;5075338;28;20347;-88
2021/11/09 11:24:13;;;;;;;23.30;8.07;;;11.80;97.50;;;;;;5047947;28;20051;-89
2021/11/09 11:26:45;;;;;;;27.73;8.63;;;11.90;97.10;;;;;;5057966;28;20029;-89
2021/11/09 11:29:20;;;;;;;21.55;7.97;;;12.00;96.50;;;;;;5067126;28;20078;-89
2021/11/09 11:31:52;;;;;;;22.08;7.95;;;12.00;96.00;;;;;;5063614;28;20029;-89
2021/11/09 11:34:20;;;;;;;23.20;8.25;;;12.10;96.40;;;;;;5072583;28;20025;-89
2021/11/09 11:37:11;;;;;;;22.13;7.82;;;12.10;96.30;;;;;;5048504;28;20086;-89
2021/11/09 11:39:38;;;;;;;25.98;8.35;;;12.20;96.60;;;;;;5057732;28;20039;-89
2021/11/09 11:42:11;;;;;;;22.88;8.60;;;12.30;95.90;;;;;;5059233;28;20028;-89
2021/11/09 11:48:29;;;;;;;25.13;7.80;;;12.50;95.60;;;;;;5077795;28;20493;-89
2021/11/09 11:51:28;;;;;;;17.08;6.45;;;12.60;95.00;;;;;;5059462;28;20029;-89
2021/11/09 11:53:54;;;;;;;22.00;7.40;;;12.70;95.30;;;;;;5067305;28;20032;-89
2021/11/09 11:56:38;;;;;;;21.75;8.43;;;12.80;94.50;;;;;;5063136;28;20036;-89
2021/11/09 11:59:41;;;;;;;19.50;6.05;;;12.90;93.80;;;;;;5076053;28;20450;-89
2021/11/09 12:02:33;;;;;;;18.05;6.55;;;12.90;93.80;;;;;;5065740;28;20115;-89
2021/11/09 12:05:07;;;;;;;16.10;6.50;;;13.00;94.40;;;;;;5088133;28;20035;-90
2021/11/09 12:08:40;;;;;;;17.10;6.07;;;13.00;93.60;;;;;;5065753;28;20070;-90
2021/11/09 12:11:36;;;;;;;14.73;6.35;;;13.10;93.40;;;;;;5049415;28;20029;-89
2021/11/09 12:14:14;;;;;;;19.05;6.50;;;13.20;93.60;;;;;;5057443;28;20054;-90
2021/11/09 12:17:03;;;;;;;22.17;6.78;;;13.20;93.50;;;;;;5089306;28;20092;-89
2021/11/09 12:19:51;;;;;;;14.98;6.00;;;13.30;93.20;;;;;;5025908;28;20052;-89
2021/11/09 12:22:21;;;;;;;16.92;6.28;;;13.40;93.30;;;;;;5074163;28;20020;-89
2021/11/09 12:25:22;;;;;;;18.00;6.60;;;13.40;92.70;;;;;;5048477;28;20128;-89
2021/11/09 12:28:00;;;;;;;23.02;6.70;;;13.50;93.10;;;;;;5043616;28;20124;-89
2021/11/09 12:30:46;;;;;;;18.98;7.72;;;13.60;92.80;;;;;;5049488;28;20029;-89
2021/11/09 12:33:24;;;;;;;20.83;7.18;;;13.60;91.90;;;;;;5047973;28;20016;-89
2021/11/09 12:36:09;;;;;;;16.13;7.38;;;13.70;91.50;;;;;;5060471;28;20032;-89
2021/11/09 12:39:11;;;;;;;19.23;6.20;;;13.70;91.50;;;;;;5056803;28;20028;-89
2021/11/09 12:41:54;;;;;;;20.75;6.65;;;13.70;91.50;;;;;;5058371;28;20033;-89
2021/11/09 12:44:34;;;;;;;19.42;6.97;;;13.80;91.60;;;;;;5040160;28;20513;-89
2021/11/09 12:47:12;;;;;;;21.58;6.47;;;13.80;91.10;;;;;;5058801;28;20458;-88
2021/11/09 12:49:55;;;;;;;19.15;7.22;;;13.90;91.50;;;;;;5043132;28;20154;-89
2021/11/09 12:52:28;;;;;;;20.27;6.38;;;13.90;91.40;;;;;;5086889;28;20029;-89
2021/11/09 13:05:11;;;;;;;19.88;6.55;;;14.10;90.80;;;;;;5070771;28;20048;-89
2021/11/09 13:07:47;;;;;;;16.05;6.18;;;14.20;90.10;;;;;;5053591;28;20032;-89
2021/11/09 13:10:23;;;;;;;23.23;7.60;;;14.20;90.10;;;;;;5063600;28;20109;-89
2021/11/09 13:12:58;;;;;;;16.40;5.93;;;14.20;90.30;;;;;;5054458;28;20028;-89
2021/11/09 13:15:31;;;;;;;20.10;7.00;;;14.30;90.30;;;;;;5062850;28;20032;-89
2021/11/09 13:18:05;;;;;;;21.75;6.47;;;14.30;89.40;;;;;;5058361;28;20051;-89
2021/11/09 13:20:48;;;;;;;17.20;6.50;;;14.40;89.40;;;;;;5049282;28;20052;-89
2021/11/09 13:23:31;;;;;;;21.33;6.35;;;14.50;88.90;;;;;;5058674;28;20039;-89
2021/11/09 13:26:10;;;;;;;18.92;6.40;;;14.50;88.30;;;;;;5044265;28;20516;-89
2021/11/09 13:28:42;;;;;;;19.35;5.70;;;14.60;88.50;;;;;;5033054;28;20039;-89
2021/11/09 13:31:15;;;;;;;18.40;6.82;;;14.60;87.40;;;;;;5039690;28;20037;-89
2021/11/09 13:33:45;;;;;;;17.92;6.20;;;14.60;87.30;;;;;;5059364;28;20103;-89
2021/11/09 13:36:21;;;;;;;16.83;5.70;;;14.60;86.80;;;;;;5060904;28;20027;-89
2021/11/09 13:38:50;;;;;;;17.45;6.30;;;14.50;87.50;;;;;;5060406;28;20047;-89
2021/11/09 13:41:31;;;;;;;19.73;6.43;;;14.50;87.60;;;;;;5049108;28;20020;-89
2021/11/09 13:44:05;;;;;;;;;;;14.50;87.00;;;;;;5071234;28;20032;-89
2021/11/09 13:46:35;;;;;;;15.73;5.72;;;14.40;87.00;;;;;;5065905;28;19908;-89
2021/11/09 13:49:07;;;;;;;17.75;5.80;;;14.40;87.40;;;;;;5049228;28;20052;-89
2021/11/09 13:51:49;;;;;;;18.27;6.20;;;14.40;87.80;;;;;;5045081;28;20052;-89
2021/11/09 13:54:25;;;;;;;15.70;5.28;;;14.30;86.80;;;;;;5048701;28;20016;-89
2021/11/09 13:56:53;;;;;;;18.77;5.90;;;14.30;86.20;;;;;;5057683;28;20035;-89
2021/11/09 13:59:45;;;;;;;20.52;5.20;;;14.20;85.60;;;;;;5039809;28;20013;-89
2021/11/09 14:02:37;;;;;;;17.27;5.28;;;14.20;85.30;;;;;;5043270;28;20020;-89
2021/11/09 14:06:06;;;;;;;17.45;5.57;;;14.10;86.00;;;;;;5059577;28;20078;-88
2021/11/09 14:13:43;;;;;;;17.83;6.13;;;14.10;87.00;;;;;;5077398;28;20477;-89
2021/11/09 14:16:31;;;;;;;19.65;5.75;;;14.00;86.00;;;;;;5058587;28;20086;-89
2021/11/09 14:18:57;;;;;;;16.63;4.82;;;13.90;87.00;;;;;;5045065;28;20068;-89
2021/11/09 14:21:37;;;;;;;16.15;5.40;;;14.00;86.90;;;;;;5058420;28;20012;-89
2021/11/09 14:24:22;;;;;;;17.83;5.03;;;14.00;87.60;;;;;;5047737;28;20388;-89
2021/11/09 14:27:12;;;;;;;21.10;4.75;;;13.90;87.90;;;;;;5080359;28;20270;-88
2021/11/09 14:30:15;;;;;;;13.35;4.95;;;13.90;87.60;;;;;;5046400;28;20033;-88
2021/11/09 14:32:41;;;;;;;16.63;4.60;;;13.90;87.20;;;;;;5049205;28;20377;-89
2021/11/09 14:35:23;;;;;;;20.30;4.90;;;13.90;87.10;;;;;;5044162;28;20024;-88
2021/11/09 14:38:02;;;;;;;17.35;5.07;;;13.80;87.10;;;;;;5061167;28;20036;-88
2021/11/09 14:40:36;;;;;;;15.38;4.70;;;13.80;88.00;;;;;;5064793;28;20093;-89
2021/11/09 14:43:28;;;;;;;15.90;4.97;;;13.80;88.00;;;;;;5060491;28;20020;-89
2021/11/09 14:46:09;;;;;;;22.77;5.40;;;13.80;87.70;;;;;;5041241;28;20063;-88
2021/11/09 14:51:16;;;;;;;16.63;4.78;;;13.80;87.70;;;;;;5061768;28;20060;-88
2021/11/09 14:56:22;;;;;;;13.82;4.05;;;13.80;87.20;;;;;;5079363;28;20024;-89
2021/11/09 14:58:51;;;;;;;19.70;5.75;;;13.80;87.40;;;;;;5061415;28;20070;-89
2021/11/09 15:01:39;;;;;;;15.23;4.45;;;13.70;88.00;;;;;;5061483;28;20092;-88
2021/11/09 15:04:20;;;;;;;16.35;4.93;;;13.70;88.40;;;;;;5059191;28;20028;-89
2021/11/09 15:25:52;;;;;;;14.90;4.50;;;13.70;89.80;;;;;;5065986;28;20068;-89
2021/11/09 15:28:53;;;;;;;13.85;4.15;;;13.70;90.10;;;;;;5031480;28;20024;-88
2021/11/09 15:31:21;;;;;;;14.15;4.65;;;13.70;90.10;;;;;;5060729;28;20041;-89
2021/11/09 15:34:46;;;;;;;13.05;4.40;;;13.70;90.10;;;;;;5063380;28;20021;-90
2021/11/09 15:39:11;;;;;;;15.32;4.82;;;13.80;90.30;;;;;;5062053;28;20031;-88
2021/11/09 15:41:37;;;;;;;13.38;4.13;;;13.80;90.40;;;;;;5060666;28;20465;-89
2021/11/09 15:44:06;;;;;;;11.02;3.80;;;13.70;90.20;;;;;;5058237;28;20025;-89
2021/11/09 15:46:33;;;;;;;15.65;4.43;;;13.70;90.20;;;;;;5055443;28;20021;-88
2021/11/09 15:48:59;;;;;;;14.43;4.22;;;13.70;90.50;;;;;;5078025;28;20386;-89
2021/11/09 15:51:25;;;;;;;12.65;4.65;;;13.80;90.60;;;;;;5043920;28;20028;-89
2021/11/09 15:53:50;;;;;;;14.27;4.05;;;13.70;90.50;;;;;;5039711;28;20524;-89
2021/11/09 15:56:16;;;;;;;10.70;4.53;;;13.70;90.80;;;;;;5037683;28;20104;-89
2021/11/09 15:58:42;;;;;;;13.25;4.28;;;13.70;91.00;;;;;;5076357;28;20114;-89
2021/11/09 16:01:08;;;;;;;15.07;4.80;;;13.70;91.00;;;;;;5060447;28;20032;-89
2021/11/09 16:03:37;;;;;;;14.63;5.00;;;13.70;91.10;;;;;;5093374;28;20101;-88
2021/11/09 16:06:04;;;;;;;14.50;4.10;;;13.70;91.30;;;;;;5059982;28;20021;-89
2021/11/09 16:08:32;;;;;;;14.30;4.28;;;13.70;91.40;;;;;;5054267;28;20051;-89
2021/11/09 16:11:01;;;;;;;17.25;4.13;;;13.70;91.70;;;;;;5083732;23;20060;-90
2021/11/09 16:13:27;;;;;;;13.02;3.95;;;13.60;91.40;;;;;;5049841;28;20024;-89
2021/11/09 16:15:53;;;;;;;18.38;4.32;;;13.60;91.40;;;;;;5029716;28;20025;-89
2021/11/09 16:18:18;;;;;;;17.02;4.78;;;13.60;91.60;;;;;;5043288;28;20016;-88
2021/11/09 16:20:45;;;;;;;13.50;4.30;;;13.60;91.60;;;;;;5040381;28;20025;-88
2021/11/09 16:23:12;;;;;;;14.02;4.53;;;13.50;91.50;;;;;;5044282;28;20024;-88
2021/11/09 16:25:38;;;;;;;12.30;4.97;;;13.50;91.60;;;;;;5063709;28;20527;-88
2021/11/09 16:28:05;;;;;;;15.55;5.05;;;13.40;91.60;;;;;;5044202;28;20028;-88
2021/11/09 16:30:32;;;;;;;16.15;6.15;;;13.40;91.80;;;;;;5058568;28;20113;-88
2021/11/09 16:33:03;;;;;;;12.20;5.18;;;13.40;91.80;;;;;;5063822;28;20165;-88
2021/11/09 16:35:43;;;;;;;14.40;4.45;;;13.30;91.80;;;;;;5038638;28;20031;-88